Escondido, CA (92027)

10:09 PM PDT on August 28, 2014 (GMT -0700)
Moody Dr | Change Station
CLOSE
Current Station
Personal Weather Station
Location: Escondido, CA
Elevation: 771 ft
Nearby Weather Stations

Elev 771 ft 33.13 °N, 117.03 °W | Updated 8 seconds ago

Clear
Clear
72.3 °F
Feels Like 77 °F
N
0.0
Wind Variable Wind from SW
Gusts 0.0 mph

Today
High -- | Low -- °F
--% Chance of Precip.
Yesterday
High -- | Low -- °F
Precip. -- in
6:19 AM 7:18 PM
Waxing Crescent, 12% visible
Pressure 29.91 in
Visibility 10.0 miles
Clouds Clear
Heat Index 77 °F
Dew Point 53 °F
Humidity 50%
Rainfall 0.00 in
Snow Depth Not available.
UV 0 out of 12
Pollen 7.30 out of 12
Ozone Good
PM2.5 Moderate
Flu Activity Not available.
METAR KRNM 290453Z AUTO 07003KT 10SM CLR 22/08 A2996 RMK AO2 SLP128 T02170083 TSNO

More Conditions Fewer Conditions

Pressure 29.91 in
Visibility 10.0 miles
Clouds Clear
Heat Index 77 °F
Dew Point 53 °F
Humidity 50%
Rainfall 0.00 in
Snow Depth Not available.
UV 0 out of 12
Pollen 7.30 out of 12
Ozone Good
PM2.5 Moderate
Flu Activity Not available.
METAR KRNM 290453Z AUTO 07003KT 10SM CLR 22/08 A2996 RMK AO2 SLP128 T02170083 TSNO

More Conditions Fewer Conditions

10-Day Weather Forecast

Almanac

Astronomy

Aug. 28, 2014 Rise Set
Actual Time 6:19 AM PDT 7:18 PM PDT
Civil Twilight 5:54 AM PDT 7:43 PM PDT
Nautical Twilight 5:24 AM PDT 8:13 PM PDT
Astronomical Twilight 4:53 AM PDT 8:44 PM PDT
Moon 9:05 AM PDT (8/28) 8:57 PM PDT (8/28)
Length of Visible Light 13h 49m
Length of Day
12h 58m
Tomorrow will be 1m 56s shorter.
Waxing Crescent, 12% of the Moon is Illuminated
Aug 29
Waxing Crescent
Sep 2
First Quarter
Sep 8
Full
Sep 15
Last Quarter
Sep 24
New

Yesterday's Extremes

State Highs State Lows

Community

WunderPhotos

Upload Photos

1,748,192 photos uploaded!

Nearby

Air Quality

  Air Quality AQ Index Pollutant
Yesterday Moderate
PM2.5
Current Moderate
PM2.5
Current Good
OZONE
Thursday Moderate
PM2.5
Thursday Good
OZONE
Friday Moderate
PM2.5
Friday Moderate
OZONE

Snow Depth

Station Depth Elevation
Leavitt Lake 0 in 9400 ft
Leavitt Meadows 0 in 7200 ft
Monitor Pass 0 in 8350 ft
Blue Lakes 0 in 8000 ft
Forestdale Creek 0 in 8029 ft

Earthquake Activity

City Distance Mag. Time & Date
San Fernando, California 109 miles 2.5 4:57 AM PDT
2014-08-26
Minimum magnitude displayed is 2.5.

Coastal Water Temperatures

Place Temperature
La Jolla, CA 72.0 °F
San Diego, CA 75.0 °F

Nearby Weather Stations